Neufchateau, Belgium
Current Conditions -  °F | °C
As of 1:50 PM on Monday 20 Oct 2014 (Local Time) from ELLX Reporting Station
Few Clouds Few Clouds  
Wind Chill: 61°   Ceiling: Unl
Heat Index: 61°   Visibility: 6mi
Dew Point: 50°   Wind: 13mph
Humidity: 68%   Direction: 240°WSW
Pressure: 30.09"   Gusts: NA
Location:  49.84°N, 5.44°E
Report Text: ELLX 201150Z 24011KT 210V270 9999 FEW024 16/10 Q1019 NOSIG
Loading
Personal Weather Stations






























Interactive Weather Map
Tropical Storm Tracking
New forecast layout! Learn more

10-Day Weather Forecast

Advertisements
Track Severe Weather on mobile